sensor_id;sensor_type;location;lat;lon;timestamp;P1;durP1;ratioP1;P2;durP2;ratioP2
78716;SDS011;68045;50.042;14.432;2023-11-19T00:02:38;11.45;;;5.45;;
78716;SDS011;68045;50.042;14.432;2023-11-19T00:06:39;10.48;;;5.13;;
78716;SDS011;68045;50.042;14.432;2023-11-19T00:10:40;9.43;;;5.10;;
78716;SDS011;68045;50.042;14.432;2023-11-19T00:14:41;12.38;;;6.00;;
78716;SDS011;68045;50.042;14.432;2023-11-19T00:18:42;10.23;;;5.95;;
78716;SDS011;68045;50.042;14.432;2023-11-19T00:22:43;12.88;;;6.60;;
78716;SDS011;68045;50.042;14.432;2023-11-19T00:26:44;12.95;;;6.25;;
78716;SDS011;68045;50.042;14.432;2023-11-19T00:30:45;11.63;;;6.50;;
78716;SDS011;68045;50.042;14.432;2023-11-19T00:34:46;9.52;;;5.10;;
78716;SDS011;68045;50.042;14.432;2023-11-19T00:38:48;13.55;;;6.35;;
78716;SDS011;68045;50.042;14.432;2023-11-19T00:42:48;10.15;;;5.95;;
78716;SDS011;68045;50.042;14.432;2023-11-19T00:46:49;7.20;;;4.13;;
78716;SDS011;68045;50.042;14.432;2023-11-19T00:50:50;9.35;;;5.50;;
78716;SDS011;68045;50.042;14.432;2023-11-19T00:54:50;8.43;;;4.97;;
78716;SDS011;68045;50.042;14.432;2023-11-19T00:58:51;13.48;;;4.25;;
78716;SDS011;68045;50.042;14.432;2023-11-19T01:02:52;8.50;;;4.45;;
78716;SDS011;68045;50.042;14.432;2023-11-19T01:06:54;11.95;;;6.38;;
78716;SDS011;68045;50.042;14.432;2023-11-19T01:10:54;11.38;;;5.88;;
78716;SDS011;68045;50.042;14.432;2023-11-19T01:14:55;11.75;;;6.60;;
78716;SDS011;68045;50.042;14.432;2023-11-19T01:18:58;13.18;;;6.18;;
78716;SDS011;68045;50.042;14.432;2023-11-19T01:22:59;13.50;;;7.03;;
78716;SDS011;68045;50.042;14.432;2023-11-19T01:27:00;8.95;;;5.15;;
78716;SDS011;68045;50.042;14.432;2023-11-19T01:31:01;7.50;;;3.95;;
78716;SDS011;68045;50.042;14.432;2023-11-19T01:35:02;10.70;;;5.45;;
78716;SDS011;68045;50.042;14.432;2023-11-19T01:39:04;15.35;;;5.22;;
78716;SDS011;68045;50.042;14.432;2023-11-19T01:43:05;9.02;;;4.88;;
78716;SDS011;68045;50.042;14.432;2023-11-19T01:47:06;8.00;;;4.50;;
78716;SDS011;68045;50.042;14.432;2023-11-19T01:51:09;11.18;;;5.70;;
78716;SDS011;68045;50.042;14.432;2023-11-19T01:55:10;10.13;;;5.18;;
78716;SDS011;68045;50.042;14.432;2023-11-19T01:59:13;9.40;;;5.50;;
78716;SDS011;68045;50.042;14.432;2023-11-19T02:03:14;12.57;;;6.53;;
78716;SDS011;68045;50.042;14.432;2023-11-19T02:07:15;9.25;;;5.20;;
78716;SDS011;68045;50.042;14.432;2023-11-19T02:11:17;10.60;;;5.95;;
78716;SDS011;68045;50.042;14.432;2023-11-19T02:15:18;12.48;;;5.70;;
78716;SDS011;68045;50.042;14.432;2023-11-19T02:19:22;10.23;;;5.28;;
78716;SDS011;68045;50.042;14.432;2023-11-19T02:23:23;13.43;;;6.63;;
78716;SDS011;68045;50.042;14.432;2023-11-19T02:31:58;13.45;;;7.35;;
78716;SDS011;68045;50.042;14.432;2023-11-19T02:35:59;10.82;;;5.38;;
78716;SDS011;68045;50.042;14.432;2023-11-19T02:40:00;10.60;;;5.45;;
78716;SDS011;68045;50.042;14.432;2023-11-19T02:44:03;10.25;;;5.63;;
78716;SDS011;68045;50.042;14.432;2023-11-19T02:48:07;11.52;;;5.80;;
78716;SDS011;68045;50.042;14.432;2023-11-19T02:52:08;11.20;;;6.10;;
78716;SDS011;68045;50.042;14.432;2023-11-19T02:56:11;7.93;;;4.72;;
78716;SDS011;68045;50.042;14.432;2023-11-19T03:00:26;10.68;;;6.15;;
78716;SDS011;68045;50.042;14.432;2023-11-19T03:04:38;11.88;;;5.60;;
78716;SDS011;68045;50.042;14.432;2023-11-19T03:08:40;10.63;;;5.47;;
78716;SDS011;68045;50.042;14.432;2023-11-19T03:12:41;12.85;;;6.30;;
78716;SDS011;68045;50.042;14.432;2023-11-19T03:16:46;12.48;;;5.75;;
78716;SDS011;68045;50.042;14.432;2023-11-19T03:20:47;10.13;;;5.65;;
78716;SDS011;68045;50.042;14.432;2023-11-19T03:24:50;13.10;;;6.53;;
78716;SDS011;68045;50.042;14.432;2023-11-19T03:28:52;11.27;;;5.25;;
78716;SDS011;68045;50.042;14.432;2023-11-19T03:32:53;11.88;;;5.82;;
78716;SDS011;68045;50.042;14.432;2023-11-19T03:36:54;12.18;;;5.30;;
78716;SDS011;68045;50.042;14.432;2023-11-19T03:40:55;14.48;;;6.53;;
78716;SDS011;68045;50.042;14.432;2023-11-19T03:44:56;8.93;;;4.80;;
78716;SDS011;68045;50.042;14.432;2023-11-19T03:48:57;11.70;;;5.13;;
78716;SDS011;68045;50.042;14.432;2023-11-19T03:52:58;9.88;;;3.97;;
78716;SDS011;68045;50.042;14.432;2023-11-19T03:56:59;8.48;;;4.85;;
78716;SDS011;68045;50.042;14.432;2023-11-19T04:01:00;12.60;;;7.35;;
78716;SDS011;68045;50.042;14.432;2023-11-19T04:05:02;6.97;;;4.05;;
78716;SDS011;68045;50.042;14.432;2023-11-19T04:09:04;11.82;;;5.82;;
78716;SDS011;68045;50.042;14.432;2023-11-19T04:13:05;8.98;;;5.20;;
78716;SDS011;68045;50.042;14.432;2023-11-19T04:17:07;7.00;;;4.70;;
78716;SDS011;68045;50.042;14.432;2023-11-19T04:21:09;10.00;;;5.00;;
78716;SDS011;68045;50.042;14.432;2023-11-19T04:25:10;8.95;;;4.93;;
78716;SDS011;68045;50.042;14.432;2023-11-19T04:29:15;4.68;;;3.40;;
78716;SDS011;68045;50.042;14.432;2023-11-19T04:33:20;11.38;;;5.40;;
78716;SDS011;68045;50.042;14.432;2023-11-19T04:37:21;9.38;;;5.55;;
78716;SDS011;68045;50.042;14.432;2023-11-19T04:41:21;10.50;;;5.93;;
78716;SDS011;68045;50.042;14.432;2023-11-19T04:45:23;8.75;;;4.38;;
78716;SDS011;68045;50.042;14.432;2023-11-19T04:49:24;8.80;;;5.40;;
78716;SDS011;68045;50.042;14.432;2023-11-19T04:53:27;9.95;;;5.63;;
78716;SDS011;68045;50.042;14.432;2023-11-19T04:57:28;10.60;;;5.80;;
78716;SDS011;68045;50.042;14.432;2023-11-19T05:01:28;10.57;;;5.22;;
78716;SDS011;68045;50.042;14.432;2023-11-19T05:05:29;10.23;;;5.47;;
78716;SDS011;68045;50.042;14.432;2023-11-19T05:09:31;4.88;;;3.28;;
78716;SDS011;68045;50.042;14.432;2023-11-19T05:13:32;10.57;;;5.05;;
78716;SDS011;68045;50.042;14.432;2023-11-19T05:17:33;7.80;;;4.03;;
78716;SDS011;68045;50.042;14.432;2023-11-19T05:21:34;10.23;;;4.88;;
78716;SDS011;68045;50.042;14.432;2023-11-19T05:25:36;9.68;;;5.10;;
78716;SDS011;68045;50.042;14.432;2023-11-19T05:29:37;7.50;;;4.15;;
78716;SDS011;68045;50.042;14.432;2023-11-19T05:33:39;7.88;;;4.72;;
78716;SDS011;68045;50.042;14.432;2023-11-19T05:37:40;7.85;;;4.35;;
78716;SDS011;68045;50.042;14.432;2023-11-19T05:41:41;9.07;;;5.43;;
78716;SDS011;68045;50.042;14.432;2023-11-19T05:45:42;9.77;;;5.20;;
78716;SDS011;68045;50.042;14.432;2023-11-19T05:49:44;8.73;;;5.20;;
78716;SDS011;68045;50.042;14.432;2023-11-19T05:53:45;9.05;;;5.07;;
78716;SDS011;68045;50.042;14.432;2023-11-19T05:57:46;9.25;;;5.00;;
78716;SDS011;68045;50.042;14.432;2023-11-19T06:01:47;10.85;;;4.75;;
78716;SDS011;68045;50.042;14.432;2023-11-19T06:05:48;9.45;;;4.88;;
78716;SDS011;68045;50.042;14.432;2023-11-19T06:09:49;6.90;;;4.00;;
78716;SDS011;68045;50.042;14.432;2023-11-19T06:13:50;9.95;;;5.45;;
78716;SDS011;68045;50.042;14.432;2023-11-19T06:17:51;9.18;;;5.35;;
78716;SDS011;68045;50.042;14.432;2023-11-19T06:21:53;6.55;;;4.00;;
78716;SDS011;68045;50.042;14.432;2023-11-19T06:25:54;9.93;;;5.25;;
78716;SDS011;68045;50.042;14.432;2023-11-19T06:29:55;7.05;;;4.30;;
78716;SDS011;68045;50.042;14.432;2023-11-19T06:33:56;7.45;;;3.65;;
78716;SDS011;68045;50.042;14.432;2023-11-19T06:37:58;9.75;;;4.72;;
78716;SDS011;68045;50.042;14.432;2023-11-19T06:42:00;7.07;;;3.58;;
78716;SDS011;68045;50.042;14.432;2023-11-19T06:46:01;8.38;;;4.40;;
78716;SDS011;68045;50.042;14.432;2023-11-19T06:50:02;7.53;;;3.22;;
78716;SDS011;68045;50.042;14.432;2023-11-19T06:54:06;6.05;;;3.75;;
78716;SDS011;68045;50.042;14.432;2023-11-19T06:58:07;9.35;;;3.58;;
78716;SDS011;68045;50.042;14.432;2023-11-19T07:02:07;5.45;;;3.60;;
78716;SDS011;68045;50.042;14.432;2023-11-19T07:06:09;6.63;;;4.07;;
78716;SDS011;68045;50.042;14.432;2023-11-19T07:10:11;7.35;;;3.70;;
78716;SDS011;68045;50.042;14.432;2023-11-19T07:14:12;7.25;;;3.80;;
78716;SDS011;68045;50.042;14.432;2023-11-19T07:18:13;6.50;;;3.83;;
78716;SDS011;68045;50.042;14.432;2023-11-19T07:22:15;5.55;;;3.13;;
78716;SDS011;68045;50.042;14.432;2023-11-19T07:26:16;6.10;;;3.55;;
78716;SDS011;68045;50.042;14.432;2023-11-19T07:30:17;7.35;;;3.97;;
78716;SDS011;68045;50.042;14.432;2023-11-19T07:34:18;5.85;;;3.85;;
78716;SDS011;68045;50.042;14.432;2023-11-19T07:38:20;10.93;;;4.32;;
78716;SDS011;68045;50.042;14.432;2023-11-19T07:42:21;7.05;;;3.95;;
78716;SDS011;68045;50.042;14.432;2023-11-19T07:46:22;6.05;;;3.60;;
78716;SDS011;68045;50.042;14.432;2023-11-19T07:50:23;4.68;;;3.08;;
78716;SDS011;68045;50.042;14.432;2023-11-19T07:54:25;6.55;;;3.90;;
78716;SDS011;68045;50.042;14.432;2023-11-19T07:58:26;5.88;;;3.42;;
78716;SDS011;68045;50.042;14.432;2023-11-19T08:02:28;6.95;;;4.30;;
78716;SDS011;68045;50.042;14.432;2023-11-19T08:06:29;10.73;;;5.13;;
78716;SDS011;68045;50.042;14.432;2023-11-19T08:10:30;7.55;;;3.80;;
78716;SDS011;68045;50.042;14.432;2023-11-19T08:18:35;10.30;;;5.57;;
78716;SDS011;68045;50.042;14.432;2023-11-19T08:22:36;7.68;;;4.32;;
78716;SDS011;68045;50.042;14.432;2023-11-19T08:26:38;10.05;;;5.95;;
78716;SDS011;68045;50.042;14.432;2023-11-19T08:30:38;6.40;;;4.07;;
78716;SDS011;68045;50.042;14.432;2023-11-19T08:34:39;6.85;;;3.70;;
78716;SDS011;68045;50.042;14.432;2023-11-19T08:38:40;7.38;;;4.32;;
78716;SDS011;68045;50.042;14.432;2023-11-19T08:42:42;7.00;;;3.92;;
78716;SDS011;68045;50.042;14.432;2023-11-19T08:46:49;7.65;;;4.43;;
78716;SDS011;68045;50.042;14.432;2023-11-19T08:50:51;8.50;;;4.55;;
78716;SDS011;68045;50.042;14.432;2023-11-19T08:54:52;6.22;;;3.03;;
78716;SDS011;68045;50.042;14.432;2023-11-19T08:58:53;7.57;;;4.68;;
78716;SDS011;68045;50.042;14.432;2023-11-19T09:02:54;8.70;;;5.15;;
78716;SDS011;68045;50.042;14.432;2023-11-19T09:06:57;7.90;;;4.07;;
78716;SDS011;68045;50.042;14.432;2023-11-19T09:10:58;9.55;;;4.95;;
78716;SDS011;68045;50.042;14.432;2023-11-19T09:14:59;6.45;;;4.00;;
78716;SDS011;68045;50.042;14.432;2023-11-19T09:19:00;14.93;;;4.55;;
78716;SDS011;68045;50.042;14.432;2023-11-19T09:23:02;10.57;;;4.85;;
78716;SDS011;68045;50.042;14.432;2023-11-19T09:27:03;7.55;;;5.03;;
78716;SDS011;68045;50.042;14.432;2023-11-19T09:31:14;8.48;;;4.30;;
78716;SDS011;68045;50.042;14.432;2023-11-19T09:35:19;8.02;;;4.65;;
78716;SDS011;68045;50.042;14.432;2023-11-19T09:39:20;9.43;;;4.20;;
78716;SDS011;68045;50.042;14.432;2023-11-19T09:43:21;8.68;;;3.53;;
78716;SDS011;68045;50.042;14.432;2023-11-19T09:47:23;7.63;;;4.30;;
78716;SDS011;68045;50.042;14.432;2023-11-19T09:51:28;11.52;;;4.95;;
78716;SDS011;68045;50.042;14.432;2023-11-19T09:55:29;8.32;;;4.28;;
78716;SDS011;68045;50.042;14.432;2023-11-19T09:59:30;9.50;;;4.63;;
78716;SDS011;68045;50.042;14.432;2023-11-19T10:03:33;10.27;;;4.78;;
78716;SDS011;68045;50.042;14.432;2023-11-19T10:07:39;7.15;;;3.92;;
78716;SDS011;68045;50.042;14.432;2023-11-19T10:11:40;7.32;;;4.70;;
78716;SDS011;68045;50.042;14.432;2023-11-19T10:15:41;9.32;;;4.28;;
78716;SDS011;68045;50.042;14.432;2023-11-19T10:19:44;9.88;;;4.20;;
78716;SDS011;68045;50.042;14.432;2023-11-19T10:27:52;4.93;;;2.67;;
78716;SDS011;68045;50.042;14.432;2023-11-19T10:31:57;6.70;;;3.63;;
78716;SDS011;68045;50.042;14.432;2023-11-19T10:36:00;5.72;;;3.38;;
78716;SDS011;68045;50.042;14.432;2023-11-19T10:40:01;4.60;;;2.60;;
78716;SDS011;68045;50.042;14.432;2023-11-19T10:44:05;4.38;;;2.50;;
78716;SDS011;68045;50.042;14.432;2023-11-19T10:48:06;4.63;;;2.75;;
78716;SDS011;68045;50.042;14.432;2023-11-19T10:52:08;4.03;;;2.40;;
78716;SDS011;68045;50.042;14.432;2023-11-19T10:56:10;3.50;;;2.20;;
78716;SDS011;68045;50.042;14.432;2023-11-19T11:00:11;3.78;;;2.65;;
78716;SDS011;68045;50.042;14.432;2023-11-19T11:04:19;4.18;;;1.95;;
78716;SDS011;68045;50.042;14.432;2023-11-19T11:08:27;1.50;;;1.40;;
78716;SDS011;68045;50.042;14.432;2023-11-19T11:12:28;2.08;;;1.40;;
78716;SDS011;68045;50.042;14.432;2023-11-19T11:16:29;1.90;;;1.30;;
78716;SDS011;68045;50.042;14.432;2023-11-19T11:20:32;4.20;;;1.80;;
78716;SDS011;68045;50.042;14.432;2023-11-19T11:37:10;1.25;;;1.05;;
78716;SDS011;68045;50.042;14.432;2023-11-19T11:41:24;2.88;;;1.30;;
78716;SDS011;68045;50.042;14.432;2023-11-19T11:45:39;2.10;;;1.40;;
78716;SDS011;68045;50.042;14.432;2023-11-19T11:49:43;2.65;;;1.45;;
78716;SDS011;68045;50.042;14.432;2023-11-19T11:53:44;2.30;;;1.50;;
78716;SDS011;68045;50.042;14.432;2023-11-19T11:57:48;2.22;;;1.50;;
78716;SDS011;68045;50.042;14.432;2023-11-19T12:01:58;3.40;;;1.50;;
78716;SDS011;68045;50.042;14.432;2023-11-19T12:05:59;3.85;;;1.60;;
78716;SDS011;68045;50.042;14.432;2023-11-19T12:10:07;2.10;;;1.52;;
78716;SDS011;68045;50.042;14.432;2023-11-19T12:14:09;4.15;;;1.60;;
78716;SDS011;68045;50.042;14.432;2023-11-19T12:18:10;2.05;;;1.30;;
78716;SDS011;68045;50.042;14.432;2023-11-19T12:22:11;2.63;;;1.60;;
78716;SDS011;68045;50.042;14.432;2023-11-19T12:30:42;5.13;;;1.42;;
78716;SDS011;68045;50.042;14.432;2023-11-19T12:34:44;2.85;;;1.42;;
78716;SDS011;68045;50.042;14.432;2023-11-19T12:38:46;3.03;;;1.50;;
78716;SDS011;68045;50.042;14.432;2023-11-19T12:42:48;3.70;;;1.60;;
78716;SDS011;68045;50.042;14.432;2023-11-19T12:47:02;2.17;;;1.27;;
78716;SDS011;68045;50.042;14.432;2023-11-19T12:51:05;3.13;;;1.38;;
78716;SDS011;68045;50.042;14.432;2023-11-19T12:55:23;2.70;;;1.50;;
78716;SDS011;68045;50.042;14.432;2023-11-19T12:59:26;3.53;;;1.52;;
78716;SDS011;68045;50.042;14.432;2023-11-19T13:03:31;3.47;;;1.60;;
78716;SDS011;68045;50.042;14.432;2023-11-19T13:07:33;2.25;;;1.35;;
78716;SDS011;68045;50.042;14.432;2023-11-19T13:11:35;2.22;;;1.45;;
78716;SDS011;68045;50.042;14.432;2023-11-19T13:15:36;3.17;;;1.70;;
78716;SDS011;68045;50.042;14.432;2023-11-19T13:19:38;4.22;;;1.80;;
78716;SDS011;68045;50.042;14.432;2023-11-19T13:23:38;3.33;;;1.58;;
78716;SDS011;68045;50.042;14.432;2023-11-19T13:27:39;4.07;;;1.58;;
78716;SDS011;68045;50.042;14.432;2023-11-19T13:31:40;2.70;;;1.42;;
78716;SDS011;68045;50.042;14.432;2023-11-19T13:35:41;3.08;;;1.40;;
78716;SDS011;68045;50.042;14.432;2023-11-19T13:39:42;6.38;;;1.73;;
78716;SDS011;68045;50.042;14.432;2023-11-19T13:43:43;3.35;;;1.77;;
78716;SDS011;68045;50.042;14.432;2023-11-19T13:47:45;3.28;;;1.60;;
78716;SDS011;68045;50.042;14.432;2023-11-19T13:51:46;3.53;;;1.85;;
78716;SDS011;68045;50.042;14.432;2023-11-19T13:55:47;2.65;;;1.63;;
78716;SDS011;68045;50.042;14.432;2023-11-19T13:59:48;2.83;;;1.67;;
78716;SDS011;68045;50.042;14.432;2023-11-19T14:03:50;2.25;;;1.20;;
78716;SDS011;68045;50.042;14.432;2023-11-19T14:07:50;2.70;;;1.48;;
78716;SDS011;68045;50.042;14.432;2023-11-19T14:11:52;2.90;;;1.60;;
78716;SDS011;68045;50.042;14.432;2023-11-19T14:15:53;1.88;;;1.33;;
78716;SDS011;68045;50.042;14.432;2023-11-19T14:19:55;3.25;;;1.92;;
78716;SDS011;68045;50.042;14.432;2023-11-19T14:23:56;2.80;;;1.42;;
78716;SDS011;68045;50.042;14.432;2023-11-19T14:27:57;3.05;;;1.60;;
78716;SDS011;68045;50.042;14.432;2023-11-19T14:31:58;3.28;;;1.73;;
78716;SDS011;68045;50.042;14.432;2023-11-19T14:35:59;3.88;;;1.63;;
78716;SDS011;68045;50.042;14.432;2023-11-19T14:40:00;3.25;;;1.90;;
78716;SDS011;68045;50.042;14.432;2023-11-19T14:44:05;5.45;;;2.45;;
78716;SDS011;68045;50.042;14.432;2023-11-19T14:48:07;6.75;;;2.60;;
78716;SDS011;68045;50.042;14.432;2023-11-19T14:52:08;12.38;;;4.60;;
78716;SDS011;68045;50.042;14.432;2023-11-19T15:00:13;14.60;;;5.28;;
78716;SDS011;68045;50.042;14.432;2023-11-19T15:04:14;21.33;;;8.25;;
78716;SDS011;68045;50.042;14.432;2023-11-19T15:12:17;8.18;;;4.25;;
78716;SDS011;68045;50.042;14.432;2023-11-19T15:16:18;14.18;;;7.28;;
78716;SDS011;68045;50.042;14.432;2023-11-19T15:20:26;11.13;;;5.95;;
78716;SDS011;68045;50.042;14.432;2023-11-19T15:24:30;14.02;;;7.38;;
78716;SDS011;68045;50.042;14.432;2023-11-19T15:28:31;13.32;;;6.30;;
78716;SDS011;68045;50.042;14.432;2023-11-19T15:32:32;8.13;;;3.72;;
78716;SDS011;68045;50.042;14.432;2023-11-19T15:36:33;6.85;;;3.15;;
78716;SDS011;68045;50.042;14.432;2023-11-19T15:40:36;7.10;;;3.25;;
78716;SDS011;68045;50.042;14.432;2023-11-19T15:44:38;5.22;;;2.88;;
78716;SDS011;68045;50.042;14.432;2023-11-19T15:48:39;13.05;;;4.90;;
78716;SDS011;68045;50.042;14.432;2023-11-19T15:52:40;8.02;;;3.33;;
78716;SDS011;68045;50.042;14.432;2023-11-19T15:56:41;5.32;;;2.55;;
78716;SDS011;68045;50.042;14.432;2023-11-19T16:00:42;7.38;;;3.30;;
78716;SDS011;68045;50.042;14.432;2023-11-19T16:04:47;7.03;;;3.55;;
78716;SDS011;68045;50.042;14.432;2023-11-19T16:08:48;5.28;;;3.00;;
78716;SDS011;68045;50.042;14.432;2023-11-19T16:12:50;8.07;;;3.08;;
78716;SDS011;68045;50.042;14.432;2023-11-19T16:16:51;5.25;;;2.78;;
78716;SDS011;68045;50.042;14.432;2023-11-19T16:20:54;9.32;;;3.72;;
78716;SDS011;68045;50.042;14.432;2023-11-19T16:24:56;8.85;;;3.97;;
78716;SDS011;68045;50.042;14.432;2023-11-19T16:28:57;7.35;;;3.17;;
78716;SDS011;68045;50.042;14.432;2023-11-19T16:32:58;11.18;;;3.40;;
78716;SDS011;68045;50.042;14.432;2023-11-19T16:36:59;5.63;;;3.13;;
78716;SDS011;68045;50.042;14.432;2023-11-19T16:41:00;8.30;;;3.08;;
78716;SDS011;68045;50.042;14.432;2023-11-19T16:45:01;8.13;;;3.50;;
78716;SDS011;68045;50.042;14.432;2023-11-19T16:49:02;6.05;;;3.17;;
78716;SDS011;68045;50.042;14.432;2023-11-19T16:53:03;7.80;;;3.95;;
78716;SDS011;68045;50.042;14.432;2023-11-19T16:57:04;10.38;;;4.85;;
78716;SDS011;68045;50.042;14.432;2023-11-19T17:01:05;10.43;;;4.97;;
78716;SDS011;68045;50.042;14.432;2023-11-19T17:05:10;10.77;;;4.00;;
78716;SDS011;68045;50.042;14.432;2023-11-19T17:09:12;9.35;;;4.45;;
78716;SDS011;68045;50.042;14.432;2023-11-19T17:13:13;10.32;;;4.78;;
78716;SDS011;68045;50.042;14.432;2023-11-19T17:17:15;8.40;;;4.72;;
78716;SDS011;68045;50.042;14.432;2023-11-19T17:21:16;8.70;;;4.60;;
78716;SDS011;68045;50.042;14.432;2023-11-19T17:25:17;9.02;;;5.03;;
78716;SDS011;68045;50.042;14.432;2023-11-19T17:29:18;16.60;;;8.27;;
78716;SDS011;68045;50.042;14.432;2023-11-19T17:33:19;15.10;;;7.40;;
78716;SDS011;68045;50.042;14.432;2023-11-19T17:37:21;14.25;;;7.30;;
78716;SDS011;68045;50.042;14.432;2023-11-19T17:41:22;12.32;;;7.18;;
78716;SDS011;68045;50.042;14.432;2023-11-19T17:45:23;16.38;;;7.07;;
78716;SDS011;68045;50.042;14.432;2023-11-19T17:49:24;11.27;;;6.90;;
78716;SDS011;68045;50.042;14.432;2023-11-19T17:53:25;11.30;;;6.68;;
78716;SDS011;68045;50.042;14.432;2023-11-19T17:57:25;14.55;;;7.10;;
78716;SDS011;68045;50.042;14.432;2023-11-19T18:01:26;12.10;;;6.93;;
78716;SDS011;68045;50.042;14.432;2023-11-19T18:05:27;14.23;;;7.63;;
78716;SDS011;68045;50.042;14.432;2023-11-19T18:09:28;12.38;;;6.57;;
78716;SDS011;68045;50.042;14.432;2023-11-19T18:13:29;12.77;;;7.30;;
78716;SDS011;68045;50.042;14.432;2023-11-19T18:17:30;16.88;;;6.95;;
78716;SDS011;68045;50.042;14.432;2023-11-19T18:21:31;7.70;;;4.38;;
78716;SDS011;68045;50.042;14.432;2023-11-19T18:25:33;12.00;;;4.47;;
78716;SDS011;68045;50.042;14.432;2023-11-19T18:29:34;5.40;;;2.97;;
78716;SDS011;68045;50.042;14.432;2023-11-19T18:33:35;13.60;;;3.88;;
78716;SDS011;68045;50.042;14.432;2023-11-19T18:37:38;4.25;;;2.60;;
78716;SDS011;68045;50.042;14.432;2023-11-19T18:41:39;7.45;;;3.03;;
78716;SDS011;68045;50.042;14.432;2023-11-19T18:45:40;4.82;;;2.28;;
78716;SDS011;68045;50.042;14.432;2023-11-19T18:49:41;8.70;;;3.33;;
78716;SDS011;68045;50.042;14.432;2023-11-19T18:53:42;8.38;;;3.88;;
78716;SDS011;68045;50.042;14.432;2023-11-19T18:57:44;9.43;;;3.03;;
78716;SDS011;68045;50.042;14.432;2023-11-19T19:01:49;5.40;;;2.80;;
78716;SDS011;68045;50.042;14.432;2023-11-19T19:05:50;10.60;;;3.70;;
78716;SDS011;68045;50.042;14.432;2023-11-19T19:09:51;17.20;;;9.57;;
78716;SDS011;68045;50.042;14.432;2023-11-19T19:13:55;5.40;;;3.08;;
78716;SDS011;68045;50.042;14.432;2023-11-19T19:17:56;8.75;;;3.22;;
78716;SDS011;68045;50.042;14.432;2023-11-19T19:21:57;6.20;;;2.83;;
78716;SDS011;68045;50.042;14.432;2023-11-19T19:25:58;8.40;;;3.08;;
78716;SDS011;68045;50.042;14.432;2023-11-19T19:29:59;5.10;;;2.65;;
78716;SDS011;68045;50.042;14.432;2023-11-19T19:34:00;6.32;;;2.97;;
78716;SDS011;68045;50.042;14.432;2023-11-19T19:38:01;10.32;;;3.53;;
78716;SDS011;68045;50.042;14.432;2023-11-19T19:42:02;13.05;;;4.40;;
78716;SDS011;68045;50.042;14.432;2023-11-19T19:46:04;6.20;;;2.75;;
78716;SDS011;68045;50.042;14.432;2023-11-19T19:50:05;9.02;;;3.40;;
78716;SDS011;68045;50.042;14.432;2023-11-19T19:54:10;5.90;;;2.80;;
78716;SDS011;68045;50.042;14.432;2023-11-19T19:58:11;6.68;;;2.95;;
78716;SDS011;68045;50.042;14.432;2023-11-19T20:02:15;7.90;;;2.65;;
78716;SDS011;68045;50.042;14.432;2023-11-19T20:06:16;12.07;;;3.45;;
78716;SDS011;68045;50.042;14.432;2023-11-19T20:10:21;8.65;;;3.17;;
78716;SDS011;68045;50.042;14.432;2023-11-19T20:14:22;6.28;;;2.83;;
78716;SDS011;68045;50.042;14.432;2023-11-19T20:18:25;13.52;;;3.00;;
78716;SDS011;68045;50.042;14.432;2023-11-19T20:26:31;4.40;;;2.47;;
78716;SDS011;68045;50.042;14.432;2023-11-19T20:30:33;5.88;;;2.08;;
78716;SDS011;68045;50.042;14.432;2023-11-19T20:34:35;8.45;;;2.38;;
78716;SDS011;68045;50.042;14.432;2023-11-19T20:38:36;4.05;;;1.88;;
78716;SDS011;68045;50.042;14.432;2023-11-19T20:42:38;7.82;;;2.55;;
78716;SDS011;68045;50.042;14.432;2023-11-19T20:46:39;7.20;;;2.88;;
78716;SDS011;68045;50.042;14.432;2023-11-19T20:50:40;5.90;;;2.50;;
78716;SDS011;68045;50.042;14.432;2023-11-19T20:54:41;8.07;;;2.53;;
78716;SDS011;68045;50.042;14.432;2023-11-19T20:58:44;6.60;;;2.30;;
78716;SDS011;68045;50.042;14.432;2023-11-19T21:02:47;4.28;;;2.50;;
78716;SDS011;68045;50.042;14.432;2023-11-19T21:06:52;7.35;;;3.10;;
78716;SDS011;68045;50.042;14.432;2023-11-19T21:10:53;6.45;;;2.80;;
78716;SDS011;68045;50.042;14.432;2023-11-19T21:14:54;5.53;;;2.90;;
78716;SDS011;68045;50.042;14.432;2023-11-19T21:18:55;5.75;;;2.92;;
78716;SDS011;68045;50.042;14.432;2023-11-19T21:22:56;9.00;;;3.42;;
78716;SDS011;68045;50.042;14.432;2023-11-19T21:26:57;6.63;;;2.65;;
78716;SDS011;68045;50.042;14.432;2023-11-19T21:30:58;6.80;;;3.40;;
78716;SDS011;68045;50.042;14.432;2023-11-19T21:34:59;9.38;;;3.42;;
78716;SDS011;68045;50.042;14.432;2023-11-19T21:39:01;5.90;;;3.33;;
78716;SDS011;68045;50.042;14.432;2023-11-19T21:43:03;6.20;;;3.63;;
78716;SDS011;68045;50.042;14.432;2023-11-19T21:47:04;7.20;;;3.75;;
78716;SDS011;68045;50.042;14.432;2023-11-19T21:51:07;8.07;;;3.10;;
78716;SDS011;68045;50.042;14.432;2023-11-19T21:55:11;12.20;;;3.50;;
78716;SDS011;68045;50.042;14.432;2023-11-19T21:59:11;6.93;;;3.28;;
78716;SDS011;68045;50.042;14.432;2023-11-19T22:03:13;9.40;;;3.17;;
78716;SDS011;68045;50.042;14.432;2023-11-19T22:07:14;8.40;;;3.05;;
78716;SDS011;68045;50.042;14.432;2023-11-19T22:11:15;9.23;;;2.80;;
78716;SDS011;68045;50.042;14.432;2023-11-19T22:15:16;6.93;;;2.90;;
78716;SDS011;68045;50.042;14.432;2023-11-19T22:19:17;7.43;;;3.17;;
78716;SDS011;68045;50.042;14.432;2023-11-19T22:23:18;9.27;;;3.03;;
78716;SDS011;68045;50.042;14.432;2023-11-19T22:27:19;7.05;;;3.00;;
78716;SDS011;68045;50.042;14.432;2023-11-19T22:31:20;5.95;;;2.38;;
78716;SDS011;68045;50.042;14.432;2023-11-19T22:35:21;8.50;;;2.75;;
78716;SDS011;68045;50.042;14.432;2023-11-19T22:39:22;11.55;;;2.70;;
78716;SDS011;68045;50.042;14.432;2023-11-19T22:43:23;9.60;;;3.15;;
78716;SDS011;68045;50.042;14.432;2023-11-19T22:47:24;5.07;;;2.35;;
78716;SDS011;68045;50.042;14.432;2023-11-19T22:51:24;5.38;;;2.80;;
78716;SDS011;68045;50.042;14.432;2023-11-19T22:55:26;6.57;;;2.38;;
78716;SDS011;68045;50.042;14.432;2023-11-19T22:59:27;8.10;;;3.00;;
78716;SDS011;68045;50.042;14.432;2023-11-19T23:03:28;8.65;;;2.80;;
78716;SDS011;68045;50.042;14.432;2023-11-19T23:07:32;5.68;;;2.50;;
78716;SDS011;68045;50.042;14.432;2023-11-19T23:11:33;4.82;;;2.40;;
78716;SDS011;68045;50.042;14.432;2023-11-19T23:15:34;4.97;;;2.15;;
78716;SDS011;68045;50.042;14.432;2023-11-19T23:19:35;12.43;;;3.20;;
78716;SDS011;68045;50.042;14.432;2023-11-19T23:23:36;6.97;;;2.47;;
78716;SDS011;68045;50.042;14.432;2023-11-19T23:27:37;5.22;;;2.38;;
78716;SDS011;68045;50.042;14.432;2023-11-19T23:31:38;3.78;;;2.15;;
78716;SDS011;68045;50.042;14.432;2023-11-19T23:35:39;8.48;;;2.70;;
78716;SDS011;68045;50.042;14.432;2023-11-19T23:39:40;7.05;;;2.95;;
78716;SDS011;68045;50.042;14.432;2023-11-19T23:43:41;6.78;;;2.42;;
78716;SDS011;68045;50.042;14.432;2023-11-19T23:47:42;3.78;;;2.10;;
78716;SDS011;68045;50.042;14.432;2023-11-19T23:51:43;8.80;;;2.53;;
78716;SDS011;68045;50.042;14.432;2023-11-19T23:55:43;11.10;;;2.08;;
78716;SDS011;68045;50.042;14.432;2023-11-19T23:59:44;9.40;;;2.97;;
